sensor_id;sensor_type;location;lat;lon;timestamp;temperature;humidity
81951;DHT22;71452;52.562;5.642;2023-12-22T00:01:14;8.20;61.90
81951;DHT22;71452;52.562;5.642;2023-12-22T00:03:43;8.30;61.70
81951;DHT22;71452;52.562;5.642;2023-12-22T00:06:13;8.20;61.40
81951;DHT22;71452;52.562;5.642;2023-12-22T00:08:42;8.30;61.20
81951;DHT22;71452;52.562;5.642;2023-12-22T00:11:11;8.30;61.10
81951;DHT22;71452;52.562;5.642;2023-12-22T00:13:42;8.30;61.20
81951;DHT22;71452;52.562;5.642;2023-12-22T00:16:11;8.30;61.40
81951;DHT22;71452;52.562;5.642;2023-12-22T00:18:41;8.20;61.40
81951;DHT22;71452;52.562;5.642;2023-12-22T00:21:10;8.20;61.80
81951;DHT22;71452;52.562;5.642;2023-12-22T00:23:39;8.20;62.00
81951;DHT22;71452;52.562;5.642;2023-12-22T00:26:08;8.30;62.20
81951;DHT22;71452;52.562;5.642;2023-12-22T00:28:37;8.30;62.20
81951;DHT22;71452;52.562;5.642;2023-12-22T00:31:09;8.30;62.20
81951;DHT22;71452;52.562;5.642;2023-12-22T00:33:38;8.40;62.30
81951;DHT22;71452;52.562;5.642;2023-12-22T00:36:08;8.30;62.40
81951;DHT22;71452;52.562;5.642;2023-12-22T00:38:37;8.40;62.80
81951;DHT22;71452;52.562;5.642;2023-12-22T00:41:06;8.40;62.80
81951;DHT22;71452;52.562;5.642;2023-12-22T00:43:35;8.40;62.80
81951;DHT22;71452;52.562;5.642;2023-12-22T00:46:04;8.40;62.80
81951;DHT22;71452;52.562;5.642;2023-12-22T00:48:36;8.50;62.90
81951;DHT22;71452;52.562;5.642;2023-12-22T00:51:06;8.50;63.00
81951;DHT22;71452;52.562;5.642;2023-12-22T00:53:35;8.50;62.90
81951;DHT22;71452;52.562;5.642;2023-12-22T00:56:05;8.50;63.20
81951;DHT22;71452;52.562;5.642;2023-12-22T00:58:34;8.50;63.50
81951;DHT22;71452;52.562;5.642;2023-12-22T01:01:03;8.50;63.90
81951;DHT22;71452;52.562;5.642;2023-12-22T01:03:35;8.50;64.40
81951;DHT22;71452;52.562;5.642;2023-12-22T01:06:04;8.50;64.70
81951;DHT22;71452;52.562;5.642;2023-12-22T01:08:33;8.50;65.10
81951;DHT22;71452;52.562;5.642;2023-12-22T01:11:02;8.50;65.50
81951;DHT22;71452;52.562;5.642;2023-12-22T01:13:31;8.50;65.90
81951;DHT22;71452;52.562;5.642;2023-12-22T01:16:00;8.50;66.40
81951;DHT22;71452;52.562;5.642;2023-12-22T01:18:26;8.50;66.70
81951;DHT22;71452;52.562;5.642;2023-12-22T01:21:00;8.50;67.20
81951;DHT22;71452;52.562;5.642;2023-12-22T01:23:29;8.50;67.20
81951;DHT22;71452;52.562;5.642;2023-12-22T01:25:58;8.50;67.30
81951;DHT22;71452;52.562;5.642;2023-12-22T01:28:27;8.50;67.30
81951;DHT22;71452;52.562;5.642;2023-12-22T01:30:56;8.50;67.20
81951;DHT22;71452;52.562;5.642;2023-12-22T01:33:25;8.40;67.20
81951;DHT22;71452;52.562;5.642;2023-12-22T01:35:55;8.40;67.20
81951;DHT22;71452;52.562;5.642;2023-12-22T01:38:27;8.40;66.70
81951;DHT22;71452;52.562;5.642;2023-12-22T01:40:56;7.90;67.70
81951;DHT22;71452;52.562;5.642;2023-12-22T01:43:25;7.40;68.40
81951;DHT22;71452;52.562;5.642;2023-12-22T01:45:56;7.00;69.20
81951;DHT22;71452;52.562;5.642;2023-12-22T01:48:28;6.80;69.90
81951;DHT22;71452;52.562;5.642;2023-12-22T01:50:58;6.70;70.20
81951;DHT22;71452;52.562;5.642;2023-12-22T01:53:32;6.60;70.60
81951;DHT22;71452;52.562;5.642;2023-12-22T01:56:02;6.60;70.70
81951;DHT22;71452;52.562;5.642;2023-12-22T01:58:33;6.60;70.70
81951;DHT22;71452;52.562;5.642;2023-12-22T02:01:13;6.60;71.00
81951;DHT22;71452;52.562;5.642;2023-12-22T02:03:42;6.60;71.30
81951;DHT22;71452;52.562;5.642;2023-12-22T02:06:12;6.60;71.40
81951;DHT22;71452;52.562;5.642;2023-12-22T02:08:46;6.60;71.50
81951;DHT22;71452;52.562;5.642;2023-12-22T02:11:16;6.60;71.70
81951;DHT22;71452;52.562;5.642;2023-12-22T02:13:45;6.60;71.80
81951;DHT22;71452;52.562;5.642;2023-12-22T02:16:19;6.70;71.80
81951;DHT22;71452;52.562;5.642;2023-12-22T02:18:51;6.80;71.70
81951;DHT22;71452;52.562;5.642;2023-12-22T02:21:20;6.90;71.40
81951;DHT22;71452;52.562;5.642;2023-12-22T02:23:51;6.90;71.20
81951;DHT22;71452;52.562;5.642;2023-12-22T02:26:27;7.00;71.10
81951;DHT22;71452;52.562;5.642;2023-12-22T02:28:58;7.00;70.70
81951;DHT22;71452;52.562;5.642;2023-12-22T02:31:33;7.10;70.60
81951;DHT22;71452;52.562;5.642;2023-12-22T02:34:07;7.20;70.00
81951;DHT22;71452;52.562;5.642;2023-12-22T02:36:41;7.20;70.00
81951;DHT22;71452;52.562;5.642;2023-12-22T02:39:17;7.20;70.00
81951;DHT22;71452;52.562;5.642;2023-12-22T02:41:47;7.20;70.00
81951;DHT22;71452;52.562;5.642;2023-12-22T02:44:16;7.20;70.10
81951;DHT22;71452;52.562;5.642;2023-12-22T02:46:45;7.20;70.20
81951;DHT22;71452;52.562;5.642;2023-12-22T02:49:15;7.30;70.30
81951;DHT22;71452;52.562;5.642;2023-12-22T02:51:44;7.30;70.20
81951;DHT22;71452;52.562;5.642;2023-12-22T02:54:16;7.30;70.30
81951;DHT22;71452;52.562;5.642;2023-12-22T02:56:45;7.30;70.40
81951;DHT22;71452;52.562;5.642;2023-12-22T02:59:15;7.30;70.40
81951;DHT22;71452;52.562;5.642;2023-12-22T03:01:44;7.40;70.40
81951;DHT22;71452;52.562;5.642;2023-12-22T03:04:13;7.40;70.40
81951;DHT22;71452;52.562;5.642;2023-12-22T03:06:43;7.40;70.50
81951;DHT22;71452;52.562;5.642;2023-12-22T03:09:12;7.50;70.50
81951;DHT22;71452;52.562;5.642;2023-12-22T03:11:43;7.50;70.30
81951;DHT22;71452;52.562;5.642;2023-12-22T03:14:12;7.60;70.10
81951;DHT22;71452;52.562;5.642;2023-12-22T03:16:41;7.60;69.50
81951;DHT22;71452;52.562;5.642;2023-12-22T03:19:10;7.60;68.90
81951;DHT22;71452;52.562;5.642;2023-12-22T03:21:39;7.60;68.80
81951;DHT22;71452;52.562;5.642;2023-12-22T03:24:08;7.60;68.70
81951;DHT22;71452;52.562;5.642;2023-12-22T03:26:38;7.70;68.40
81951;DHT22;71452;52.562;5.642;2023-12-22T03:29:09;7.70;68.70
81951;DHT22;71452;52.562;5.642;2023-12-22T03:31:38;7.70;68.90
81951;DHT22;71452;52.562;5.642;2023-12-22T03:34:07;7.70;69.10
81951;DHT22;71452;52.562;5.642;2023-12-22T03:36:36;7.70;69.30
81951;DHT22;71452;52.562;5.642;2023-12-22T03:39:05;7.70;69.40
81951;DHT22;71452;52.562;5.642;2023-12-22T03:41:35;7.60;69.50
81951;DHT22;71452;52.562;5.642;2023-12-22T03:44:04;7.60;69.50
81951;DHT22;71452;52.562;5.642;2023-12-22T03:46:36;7.60;69.40
81951;DHT22;71452;52.562;5.642;2023-12-22T03:49:05;7.60;69.30
81951;DHT22;71452;52.562;5.642;2023-12-22T03:51:34;7.60;69.40
81951;DHT22;71452;52.562;5.642;2023-12-22T03:54:03;7.60;69.40
81951;DHT22;71452;52.562;5.642;2023-12-22T03:56:33;7.60;69.40
81951;DHT22;71452;52.562;5.642;2023-12-22T03:59:02;7.60;69.50
81951;DHT22;71452;52.562;5.642;2023-12-22T04:01:31;7.60;69.20
81951;DHT22;71452;52.562;5.642;2023-12-22T04:04:02;7.50;69.30
81951;DHT22;71452;52.562;5.642;2023-12-22T04:06:31;7.60;68.60
81951;DHT22;71452;52.562;5.642;2023-12-22T04:09:02;7.60;68.40
81951;DHT22;71452;52.562;5.642;2023-12-22T04:11:32;7.60;67.90
81951;DHT22;71452;52.562;5.642;2023-12-22T04:14:03;7.70;67.80
81951;DHT22;71452;52.562;5.642;2023-12-22T04:16:32;7.70;67.90
81951;DHT22;71452;52.562;5.642;2023-12-22T04:19:03;7.70;68.00
81951;DHT22;71452;52.562;5.642;2023-12-22T04:21:32;7.80;68.00
81951;DHT22;71452;52.562;5.642;2023-12-22T04:24:01;7.80;67.90
81951;DHT22;71452;52.562;5.642;2023-12-22T04:26:31;7.80;68.00
81951;DHT22;71452;52.562;5.642;2023-12-22T04:29:00;7.80;68.00
81951;DHT22;71452;52.562;5.642;2023-12-22T04:31:29;7.90;67.50
81951;DHT22;71452;52.562;5.642;2023-12-22T04:33:58;7.90;67.10
81951;DHT22;71452;52.562;5.642;2023-12-22T04:36:30;8.00;66.50
81951;DHT22;71452;52.562;5.642;2023-12-22T04:38:59;8.00;66.30
81951;DHT22;71452;52.562;5.642;2023-12-22T04:41:28;7.90;66.30
81951;DHT22;71452;52.562;5.642;2023-12-22T04:43:57;7.90;66.20
81951;DHT22;71452;52.562;5.642;2023-12-22T04:46:29;7.90;66.60
81951;DHT22;71452;52.562;5.642;2023-12-22T04:48:58;7.90;66.60
81951;DHT22;71452;52.562;5.642;2023-12-22T04:51:30;7.90;66.70
81951;DHT22;71452;52.562;5.642;2023-12-22T04:53:59;7.90;67.10
81951;DHT22;71452;52.562;5.642;2023-12-22T04:56:29;7.80;67.40
81951;DHT22;71452;52.562;5.642;2023-12-22T04:58:58;8.00;67.50
81951;DHT22;71452;52.562;5.642;2023-12-22T05:01:27;7.90;67.80
81951;DHT22;71452;52.562;5.642;2023-12-22T05:03:56;7.80;68.00
81951;DHT22;71452;52.562;5.642;2023-12-22T05:06:25;7.80;68.20
81951;DHT22;71452;52.562;5.642;2023-12-22T05:08:57;7.90;68.30
81951;DHT22;71452;52.562;5.642;2023-12-22T05:11:26;7.90;68.50
81951;DHT22;71452;52.562;5.642;2023-12-22T05:13:55;7.90;68.50
81951;DHT22;71452;52.562;5.642;2023-12-22T05:16:25;7.90;68.60
81951;DHT22;71452;52.562;5.642;2023-12-22T05:18:55;7.90;68.70
81951;DHT22;71452;52.562;5.642;2023-12-22T05:21:24;7.90;68.90
81951;DHT22;71452;52.562;5.642;2023-12-22T05:23:53;8.00;69.00
81951;DHT22;71452;52.562;5.642;2023-12-22T05:26:25;8.00;68.90
81951;DHT22;71452;52.562;5.642;2023-12-22T05:28:56;8.00;68.90
81951;DHT22;71452;52.562;5.642;2023-12-22T05:31:25;8.00;69.00
81951;DHT22;71452;52.562;5.642;2023-12-22T05:33:54;8.00;69.00
81951;DHT22;71452;52.562;5.642;2023-12-22T05:36:24;8.10;68.80
81951;DHT22;71452;52.562;5.642;2023-12-22T05:38:53;8.10;68.90
81951;DHT22;71452;52.562;5.642;2023-12-22T05:41:25;8.10;68.90
81951;DHT22;71452;52.562;5.642;2023-12-22T05:43:54;8.20;69.00
81951;DHT22;71452;52.562;5.642;2023-12-22T05:46:23;8.10;69.00
81951;DHT22;71452;52.562;5.642;2023-12-22T05:48:52;8.10;69.10
81951;DHT22;71452;52.562;5.642;2023-12-22T05:51:25;8.20;68.90
81951;DHT22;71452;52.562;5.642;2023-12-22T05:53:54;8.20;69.00
81951;DHT22;71452;52.562;5.642;2023-12-22T05:56:25;8.20;69.10
81951;DHT22;71452;52.562;5.642;2023-12-22T05:58:55;8.30;69.00
81951;DHT22;71452;52.562;5.642;2023-12-22T06:01:24;8.30;69.10
81951;DHT22;71452;52.562;5.642;2023-12-22T06:03:53;8.30;69.20
81951;DHT22;71452;52.562;5.642;2023-12-22T06:06:22;8.30;69.20
81951;DHT22;71452;52.562;5.642;2023-12-22T06:08:53;8.40;69.40
81951;DHT22;71452;52.562;5.642;2023-12-22T06:11:24;8.40;69.50
81951;DHT22;71452;52.562;5.642;2023-12-22T06:13:53;8.40;69.50
81951;DHT22;71452;52.562;5.642;2023-12-22T06:16:22;8.40;69.60
81951;DHT22;71452;52.562;5.642;2023-12-22T06:18:51;8.40;69.50
81951;DHT22;71452;52.562;5.642;2023-12-22T06:21:20;8.40;69.50
81951;DHT22;71452;52.562;5.642;2023-12-22T06:23:51;8.40;69.20
81951;DHT22;71452;52.562;5.642;2023-12-22T06:26:20;8.40;69.60
81951;DHT22;71452;52.562;5.642;2023-12-22T06:28:52;8.30;69.70
81951;DHT22;71452;52.562;5.642;2023-12-22T06:31:21;8.20;69.90
81951;DHT22;71452;52.562;5.642;2023-12-22T06:33:51;8.10;70.20
81951;DHT22;71452;52.562;5.642;2023-12-22T06:36:21;8.00;70.70
81951;DHT22;71452;52.562;5.642;2023-12-22T06:38:50;8.00;71.10
81951;DHT22;71452;52.562;5.642;2023-12-22T06:41:20;7.90;71.50
81951;DHT22;71452;52.562;5.642;2023-12-22T06:43:52;7.90;71.80
81951;DHT22;71452;52.562;5.642;2023-12-22T06:46:23;7.90;72.30
81951;DHT22;71452;52.562;5.642;2023-12-22T06:48:52;7.90;72.70
81951;DHT22;71452;52.562;5.642;2023-12-22T06:51:23;7.80;73.00
81951;DHT22;71452;52.562;5.642;2023-12-22T06:53:53;7.80;73.10
81951;DHT22;71452;52.562;5.642;2023-12-22T06:56:23;7.80;73.30
81951;DHT22;71452;52.562;5.642;2023-12-22T06:58:56;7.80;73.40
81951;DHT22;71452;52.562;5.642;2023-12-22T07:01:27;7.80;73.60
81951;DHT22;71452;52.562;5.642;2023-12-22T07:03:57;7.80;73.70
81951;DHT22;71452;52.562;5.642;2023-12-22T07:06:28;7.80;73.80
81951;DHT22;71452;52.562;5.642;2023-12-22T07:11:43;7.80;74.10
81951;DHT22;71452;52.562;5.642;2023-12-22T07:14:15;7.80;74.30
81951;DHT22;71452;52.562;5.642;2023-12-22T07:16:44;7.90;74.30
81951;DHT22;71452;52.562;5.642;2023-12-22T07:19:13;7.80;74.40
81951;DHT22;71452;52.562;5.642;2023-12-22T07:21:42;7.80;74.50
81951;DHT22;71452;52.562;5.642;2023-12-22T07:24:11;7.90;74.50
81951;DHT22;71452;52.562;5.642;2023-12-22T07:26:42;8.00;74.30
81951;DHT22;71452;52.562;5.642;2023-12-22T07:29:11;8.00;74.30
81951;DHT22;71452;52.562;5.642;2023-12-22T07:31:42;8.00;74.20
81951;DHT22;71452;52.562;5.642;2023-12-22T07:34:11;8.00;74.30
81951;DHT22;71452;52.562;5.642;2023-12-22T07:36:41;8.00;74.40
81951;DHT22;71452;52.562;5.642;2023-12-22T07:39:10;8.00;74.40
81951;DHT22;71452;52.562;5.642;2023-12-22T07:41:39;8.00;74.40
81951;DHT22;71452;52.562;5.642;2023-12-22T07:44:09;8.00;74.40
81951;DHT22;71452;52.562;5.642;2023-12-22T07:46:39;8.00;74.50
81951;DHT22;71452;52.562;5.642;2023-12-22T07:49:10;8.00;74.40
81951;DHT22;71452;52.562;5.642;2023-12-22T07:51:39;8.00;74.40
81951;DHT22;71452;52.562;5.642;2023-12-22T07:54:09;8.10;73.90
81951;DHT22;71452;52.562;5.642;2023-12-22T07:56:38;8.10;73.90
81951;DHT22;71452;52.562;5.642;2023-12-22T07:59:07;8.00;73.90
81951;DHT22;71452;52.562;5.642;2023-12-22T08:01:36;8.00;74.00
81951;DHT22;71452;52.562;5.642;2023-12-22T08:04:05;8.00;73.90
81951;DHT22;71452;52.562;5.642;2023-12-22T08:06:36;8.00;74.00
81951;DHT22;71452;52.562;5.642;2023-12-22T08:09:05;8.00;73.90
81951;DHT22;71452;52.562;5.642;2023-12-22T08:11:34;8.00;73.90
81951;DHT22;71452;52.562;5.642;2023-12-22T08:14:03;8.00;74.00
81951;DHT22;71452;52.562;5.642;2023-12-22T08:16:32;8.10;74.00
81951;DHT22;71452;52.562;5.642;2023-12-22T08:19:01;8.10;74.00
81951;DHT22;71452;52.562;5.642;2023-12-22T08:21:30;8.20;74.10
81951;DHT22;71452;52.562;5.642;2023-12-22T08:24:02;8.30;73.90
81951;DHT22;71452;52.562;5.642;2023-12-22T08:26:31;8.30;73.60
81951;DHT22;71452;52.562;5.642;2023-12-22T08:29:01;8.40;73.30
81951;DHT22;71452;52.562;5.642;2023-12-22T08:31:30;8.50;73.30
81951;DHT22;71452;52.562;5.642;2023-12-22T08:33:59;8.40;73.50
81951;DHT22;71452;52.562;5.642;2023-12-22T08:36:28;8.50;73.70
81951;DHT22;71452;52.562;5.642;2023-12-22T08:38:57;8.50;74.00
81951;DHT22;71452;52.562;5.642;2023-12-22T08:41:29;8.50;74.10
81951;DHT22;71452;52.562;5.642;2023-12-22T08:44:02;8.50;74.50
81951;DHT22;71452;52.562;5.642;2023-12-22T08:46:31;8.60;75.00
81951;DHT22;71452;52.562;5.642;2023-12-22T08:49:00;8.60;75.20
81951;DHT22;71452;52.562;5.642;2023-12-22T08:51:29;8.60;75.10
81951;DHT22;71452;52.562;5.642;2023-12-22T08:53:58;8.60;75.10
81951;DHT22;71452;52.562;5.642;2023-12-22T08:56:30;8.60;75.20
81951;DHT22;71452;52.562;5.642;2023-12-22T08:59:01;8.60;75.30
81951;DHT22;71452;52.562;5.642;2023-12-22T09:01:30;8.60;75.40
81951;DHT22;71452;52.562;5.642;2023-12-22T09:03:59;8.60;75.60
81951;DHT22;71452;52.562;5.642;2023-12-22T09:06:28;8.70;75.60
81951;DHT22;71452;52.562;5.642;2023-12-22T09:08:57;8.80;75.80
81951;DHT22;71452;52.562;5.642;2023-12-22T09:11:26;8.80;75.80
81951;DHT22;71452;52.562;5.642;2023-12-22T09:13:58;8.90;75.90
81951;DHT22;71452;52.562;5.642;2023-12-22T09:16:27;8.90;76.20
81951;DHT22;71452;52.562;5.642;2023-12-22T09:18:56;9.00;76.30
81951;DHT22;71452;52.562;5.642;2023-12-22T09:21:25;9.00;76.50
81951;DHT22;71452;52.562;5.642;2023-12-22T09:23:54;9.00;76.70
81951;DHT22;71452;52.562;5.642;2023-12-22T09:26:25;9.00;76.70
81951;DHT22;71452;52.562;5.642;2023-12-22T09:28:57;9.10;76.80
81951;DHT22;71452;52.562;5.642;2023-12-22T09:31:26;9.20;76.70
81951;DHT22;71452;52.562;5.642;2023-12-22T09:33:55;9.20;76.50
81951;DHT22;71452;52.562;5.642;2023-12-22T09:36:24;9.30;76.40
81951;DHT22;71452;52.562;5.642;2023-12-22T09:38:53;9.40;76.10
81951;DHT22;71452;52.562;5.642;2023-12-22T09:41:23;9.40;76.00
81951;DHT22;71452;52.562;5.642;2023-12-22T09:43:58;9.40;75.80
81951;DHT22;71452;52.562;5.642;2023-12-22T09:46:29;9.40;75.50
81951;DHT22;71452;52.562;5.642;2023-12-22T09:49:00;9.40;75.30
81951;DHT22;71452;52.562;5.642;2023-12-22T09:51:31;9.50;75.00
81951;DHT22;71452;52.562;5.642;2023-12-22T09:54:02;9.50;75.00
81951;DHT22;71452;52.562;5.642;2023-12-22T09:56:33;9.50;74.60
81951;DHT22;71452;52.562;5.642;2023-12-22T09:59:10;9.60;74.60
81951;DHT22;71452;52.562;5.642;2023-12-22T10:01:43;9.60;74.40
81951;DHT22;71452;52.562;5.642;2023-12-22T10:04:12;9.60;74.40
81951;DHT22;71452;52.562;5.642;2023-12-22T10:06:42;9.60;74.50
81951;DHT22;71452;52.562;5.642;2023-12-22T10:09:13;9.60;74.50
81951;DHT22;71452;52.562;5.642;2023-12-22T10:11:43;9.70;74.40
81951;DHT22;71452;52.562;5.642;2023-12-22T10:14:16;9.70;74.50
81951;DHT22;71452;52.562;5.642;2023-12-22T10:16:48;9.80;74.50
81951;DHT22;71452;52.562;5.642;2023-12-22T10:19:18;9.80;74.60
81951;DHT22;71452;52.562;5.642;2023-12-22T10:21:48;9.90;74.50
81951;DHT22;71452;52.562;5.642;2023-12-22T10:24:39;9.90;74.40
81951;DHT22;71452;52.562;5.642;2023-12-22T10:27:11;10.00;74.40
81951;DHT22;71452;52.562;5.642;2023-12-22T10:29:42;10.00;74.30
81951;DHT22;71452;52.562;5.642;2023-12-22T10:32:12;10.00;72.70
81951;DHT22;71452;52.562;5.642;2023-12-22T10:34:41;9.70;69.40
81951;DHT22;71452;52.562;5.642;2023-12-22T10:37:10;9.40;69.00
81951;DHT22;71452;52.562;5.642;2023-12-22T10:39:41;8.90;69.70
81951;DHT22;71452;52.562;5.642;2023-12-22T10:42:14;8.60;70.70
81951;DHT22;71452;52.562;5.642;2023-12-22T10:44:46;8.30;71.20
81951;DHT22;71452;52.562;5.642;2023-12-22T10:47:16;8.20;71.80
81951;DHT22;71452;52.562;5.642;2023-12-22T10:49:47;8.10;72.20
81951;DHT22;71452;52.562;5.642;2023-12-22T10:52:16;8.00;72.90
81951;DHT22;71452;52.562;5.642;2023-12-22T10:54:48;8.00;73.30
81951;DHT22;71452;52.562;5.642;2023-12-22T10:57:17;8.00;73.50
81951;DHT22;71452;52.562;5.642;2023-12-22T10:59:50;8.00;73.80
81951;DHT22;71452;52.562;5.642;2023-12-22T11:02:20;8.10;73.90
81951;DHT22;71452;52.562;5.642;2023-12-22T11:04:57;8.10;74.10
81951;DHT22;71452;52.562;5.642;2023-12-22T11:07:28;8.20;74.00
81951;DHT22;71452;52.562;5.642;2023-12-22T11:10:02;8.20;73.90
81951;DHT22;71452;52.562;5.642;2023-12-22T11:12:33;8.20;74.10
81951;DHT22;71452;52.562;5.642;2023-12-22T11:15:07;8.20;74.40
81951;DHT22;71452;52.562;5.642;2023-12-22T11:17:37;8.20;74.50
81951;DHT22;71452;52.562;5.642;2023-12-22T11:20:09;8.30;74.40
81951;DHT22;71452;52.562;5.642;2023-12-22T11:22:38;8.20;74.60
81951;DHT22;71452;52.562;5.642;2023-12-22T11:25:09;8.20;74.90
81951;DHT22;71452;52.562;5.642;2023-12-22T11:27:38;8.30;75.00
81951;DHT22;71452;52.562;5.642;2023-12-22T11:30:12;8.30;75.10
81951;DHT22;71452;52.562;5.642;2023-12-22T11:32:41;8.30;75.30
81951;DHT22;71452;52.562;5.642;2023-12-22T11:35:12;8.30;75.50
81951;DHT22;71452;52.562;5.642;2023-12-22T11:37:43;8.40;75.50
81951;DHT22;71452;52.562;5.642;2023-12-22T11:40:13;8.50;75.40
81951;DHT22;71452;52.562;5.642;2023-12-22T11:42:45;8.50;75.70
81951;DHT22;71452;52.562;5.642;2023-12-22T11:45:20;8.60;75.80
81951;DHT22;71452;52.562;5.642;2023-12-22T11:47:50;8.70;76.20
81951;DHT22;71452;52.562;5.642;2023-12-22T11:50:29;8.80;76.60
81951;DHT22;71452;52.562;5.642;2023-12-22T11:53:19;9.00;75.50
81951;DHT22;71452;52.562;5.642;2023-12-22T11:56:00;9.00;75.20
81951;DHT22;71452;52.562;5.642;2023-12-22T11:58:36;9.00;75.70
81951;DHT22;71452;52.562;5.642;2023-12-22T12:01:09;9.00;76.40
81951;DHT22;71452;52.562;5.642;2023-12-22T12:03:42;9.20;76.90
81951;DHT22;71452;52.562;5.642;2023-12-22T12:06:15;9.30;76.90
81951;DHT22;71452;52.562;5.642;2023-12-22T12:08:42;9.40;76.70
81951;DHT22;71452;52.562;5.642;2023-12-22T12:11:12;9.50;76.60
81951;DHT22;71452;52.562;5.642;2023-12-22T12:13:43;9.50;76.40
81951;DHT22;71452;52.562;5.642;2023-12-22T12:16:19;9.60;76.20
81951;DHT22;71452;52.562;5.642;2023-12-22T12:18:48;9.70;75.60
81951;DHT22;71452;52.562;5.642;2023-12-22T12:21:18;9.70;73.20
81951;DHT22;71452;52.562;5.642;2023-12-22T12:23:49;9.50;72.50
81951;DHT22;71452;52.562;5.642;2023-12-22T12:26:18;9.30;72.50
81951;DHT22;71452;52.562;5.642;2023-12-22T12:28:47;9.20;72.80
81951;DHT22;71452;52.562;5.642;2023-12-22T12:31:19;9.00;72.70
81951;DHT22;71452;52.562;5.642;2023-12-22T12:33:50;8.80;73.20
81951;DHT22;71452;52.562;5.642;2023-12-22T12:36:20;8.60;73.70
81951;DHT22;71452;52.562;5.642;2023-12-22T12:38:55;8.60;74.30
81951;DHT22;71452;52.562;5.642;2023-12-22T12:41:29;8.40;74.80
81951;DHT22;71452;52.562;5.642;2023-12-22T12:43:59;8.30;75.20
81951;DHT22;71452;52.562;5.642;2023-12-22T12:46:35;8.40;75.40
81951;DHT22;71452;52.562;5.642;2023-12-22T12:49:05;8.40;75.40
81951;DHT22;71452;52.562;5.642;2023-12-22T12:51:38;8.30;75.60
81951;DHT22;71452;52.562;5.642;2023-12-22T12:54:08;8.20;75.80
81951;DHT22;71452;52.562;5.642;2023-12-22T12:56:38;8.30;76.00
81951;DHT22;71452;52.562;5.642;2023-12-22T12:59:08;8.20;76.20
81951;DHT22;71452;52.562;5.642;2023-12-22T13:01:41;8.20;76.40
81951;DHT22;71452;52.562;5.642;2023-12-22T13:04:10;8.30;76.50
81951;DHT22;71452;52.562;5.642;2023-12-22T13:06:46;8.40;76.50
81951;DHT22;71452;52.562;5.642;2023-12-22T13:09:16;8.40;76.70
81951;DHT22;71452;52.562;5.642;2023-12-22T13:11:46;8.40;76.90
81951;DHT22;71452;52.562;5.642;2023-12-22T13:14:22;8.50;77.10
81951;DHT22;71452;52.562;5.642;2023-12-22T13:16:55;8.60;77.60
81951;DHT22;71452;52.562;5.642;2023-12-22T13:19:25;8.90;78.10
81951;DHT22;71452;52.562;5.642;2023-12-22T13:21:54;9.00;78.20
81951;DHT22;71452;52.562;5.642;2023-12-22T13:24:23;9.30;77.80
81951;DHT22;71452;52.562;5.642;2023-12-22T13:27:00;9.50;77.30
81951;DHT22;71452;52.562;5.642;2023-12-22T13:29:42;9.60;77.00
81951;DHT22;71452;52.562;5.642;2023-12-22T13:32:18;9.70;76.50
81951;DHT22;71452;52.562;5.642;2023-12-22T13:34:51;9.80;76.10
81951;DHT22;71452;52.562;5.642;2023-12-22T13:37:20;9.80;75.90
81951;DHT22;71452;52.562;5.642;2023-12-22T13:39:50;9.90;75.60
81951;DHT22;71452;52.562;5.642;2023-12-22T13:42:20;10.00;75.30
81951;DHT22;71452;52.562;5.642;2023-12-22T13:44:49;10.10;75.00
81951;DHT22;71452;52.562;5.642;2023-12-22T13:47:21;10.10;75.10
81951;DHT22;71452;52.562;5.642;2023-12-22T13:49:51;10.20;75.00
81951;DHT22;71452;52.562;5.642;2023-12-22T13:52:27;10.20;74.70
81951;DHT22;71452;52.562;5.642;2023-12-22T13:54:58;10.30;74.80
81951;DHT22;71452;52.562;5.642;2023-12-22T13:57:28;10.30;74.80
81951;DHT22;71452;52.562;5.642;2023-12-22T13:59:58;10.20;75.00
81951;DHT22;71452;52.562;5.642;2023-12-22T14:02:29;10.20;75.00
81951;DHT22;71452;52.562;5.642;2023-12-22T14:04:59;10.30;74.80
81951;DHT22;71452;52.562;5.642;2023-12-22T14:07:28;10.30;74.50
81951;DHT22;71452;52.562;5.642;2023-12-22T14:09:57;10.30;74.30
81951;DHT22;71452;52.562;5.642;2023-12-22T14:12:26;10.30;74.20
81951;DHT22;71452;52.562;5.642;2023-12-22T14:14:55;10.30;74.20
81951;DHT22;71452;52.562;5.642;2023-12-22T14:17:24;10.40;74.00
81951;DHT22;71452;52.562;5.642;2023-12-22T14:19:56;10.40;73.90
81951;DHT22;71452;52.562;5.642;2023-12-22T14:22:25;10.40;73.80
81951;DHT22;71452;52.562;5.642;2023-12-22T14:24:54;10.40;73.80
81951;DHT22;71452;52.562;5.642;2023-12-22T14:27:24;10.50;73.50
81951;DHT22;71452;52.562;5.642;2023-12-22T14:29:53;10.50;73.60
81951;DHT22;71452;52.562;5.642;2023-12-22T14:32:22;10.50;73.50
81951;DHT22;71452;52.562;5.642;2023-12-22T14:34:51;10.50;73.40
81951;DHT22;71452;52.562;5.642;2023-12-22T14:37:23;10.50;73.30
81951;DHT22;71452;52.562;5.642;2023-12-22T14:39:52;10.60;73.10
81951;DHT22;71452;52.562;5.642;2023-12-22T14:42:21;10.60;73.10
81951;DHT22;71452;52.562;5.642;2023-12-22T14:44:50;10.60;73.30
81951;DHT22;71452;52.562;5.642;2023-12-22T14:47:20;10.50;73.40
81951;DHT22;71452;52.562;5.642;2023-12-22T14:49:49;10.50;73.70
81951;DHT22;71452;52.562;5.642;2023-12-22T14:52:18;10.50;73.90
81951;DHT22;71452;52.562;5.642;2023-12-22T14:54:50;10.50;72.50
81951;DHT22;71452;52.562;5.642;2023-12-22T14:57:19;10.20;70.20
81951;DHT22;71452;52.562;5.642;2023-12-22T14:59:48;10.00;69.90
81951;DHT22;71452;52.562;5.642;2023-12-22T15:02:17;9.80;69.80
81951;DHT22;71452;52.562;5.642;2023-12-22T15:04:46;9.60;70.50
81951;DHT22;71452;52.562;5.642;2023-12-22T15:07:15;9.40;71.40
81951;DHT22;71452;52.562;5.642;2023-12-22T15:09:45;9.20;72.10
81951;DHT22;71452;52.562;5.642;2023-12-22T15:12:17;9.00;72.90
81951;DHT22;71452;52.562;5.642;2023-12-22T15:14:46;9.00;73.40
81951;DHT22;71452;52.562;5.642;2023-12-22T15:17:16;8.80;74.30
81951;DHT22;71452;52.562;5.642;2023-12-22T15:19:45;8.60;74.70
81951;DHT22;71452;52.562;5.642;2023-12-22T15:22:14;8.50;75.30
81951;DHT22;71452;52.562;5.642;2023-12-22T15:24:44;8.50;75.80
81951;DHT22;71452;52.562;5.642;2023-12-22T15:27:13;8.40;76.30
81951;DHT22;71452;52.562;5.642;2023-12-22T15:29:45;8.30;76.60
81951;DHT22;71452;52.562;5.642;2023-12-22T15:32:14;8.30;76.60
81951;DHT22;71452;52.562;5.642;2023-12-22T15:34:43;8.30;76.80
81951;DHT22;71452;52.562;5.642;2023-12-22T15:37:13;8.20;77.00
81951;DHT22;71452;52.562;5.642;2023-12-22T15:39:42;8.20;77.00
81951;DHT22;71452;52.562;5.642;2023-12-22T15:42:12;8.20;76.90
81951;DHT22;71452;52.562;5.642;2023-12-22T15:44:41;8.30;77.00
81951;DHT22;71452;52.562;5.642;2023-12-22T15:47:13;8.20;77.10
81951;DHT22;71452;52.562;5.642;2023-12-22T15:49:42;8.30;76.90
81951;DHT22;71452;52.562;5.642;2023-12-22T15:52:11;8.30;76.70
81951;DHT22;71452;52.562;5.642;2023-12-22T15:54:40;8.30;76.50
81951;DHT22;71452;52.562;5.642;2023-12-22T15:57:09;8.30;76.60
81951;DHT22;71452;52.562;5.642;2023-12-22T15:59:38;8.40;76.40
81951;DHT22;71452;52.562;5.642;2023-12-22T16:02:07;8.40;76.50
81951;DHT22;71452;52.562;5.642;2023-12-22T16:04:38;8.40;76.50
81951;DHT22;71452;52.562;5.642;2023-12-22T16:07:07;8.40;76.40